createdAt,value
2023-05-07T00:04:39.892Z,0.50
2023-05-07T00:09:43.495Z,0.53
2023-05-07T00:14:47.285Z,0.53
2023-05-07T00:19:52.228Z,0.50
2023-05-07T00:24:55.780Z,0.30
2023-05-07T00:29:59.269Z,0.30
2023-05-07T00:35:04.198Z,0.50
2023-05-07T00:40:09.648Z,0.40
2023-05-07T00:45:13.626Z,0.40
2023-05-07T00:50:20.110Z,0.60
2023-05-07T00:55:24.539Z,0.33
2023-05-07T01:00:28.216Z,0.40
2023-05-07T01:05:33.673Z,0.30
2023-05-07T01:10:37.881Z,0.20
2023-05-07T01:15:42.408Z,0.43
2023-05-07T01:20:47.686Z,0.30
2023-05-07T01:25:55.411Z,0.50
2023-05-07T01:31:04.255Z,0.30
2023-05-07T01:36:09.987Z,0.40
2023-05-07T01:41:16.056Z,0.40
2023-05-07T01:46:20.380Z,0.40
2023-05-07T01:51:24.828Z,0.50
2023-05-07T01:56:29.718Z,0.50
2023-05-07T02:01:34.813Z,0.30
2023-05-07T02:06:39.671Z,0.30
2023-05-07T02:11:46.708Z,0.40
2023-05-07T02:16:50.791Z,0.30
2023-05-07T02:21:57.628Z,0.60
2023-05-07T02:27:08.334Z,0.47
2023-05-07T02:32:12.032Z,0.50
2023-05-07T02:37:15.726Z,0.80
2023-05-07T02:42:21.338Z,0.50
2023-05-07T02:47:25.038Z,0.40
2023-05-07T02:52:28.893Z,0.30
2023-05-07T02:57:33.799Z,0.40
2023-05-07T03:02:37.360Z,0.20
2023-05-07T03:07:42.131Z,0.40
2023-05-07T03:12:47.138Z,0.30
2023-05-07T03:17:53.695Z,0.37
2023-05-07T03:22:57.446Z,0.30
2023-05-07T03:28:02.329Z,0.30
2023-05-07T03:33:14.772Z,0.20
2023-05-07T03:38:18.792Z,0.40
2023-05-07T03:43:23.767Z,0.20
2023-05-07T03:48:34.949Z,0.50
2023-05-07T03:53:38.578Z,0.30
2023-05-07T03:58:43.844Z,0.30
2023-05-07T04:03:49.020Z,0.30
2023-05-07T04:08:52.763Z,0.30
2023-05-07T04:13:57.647Z,0.43
2023-05-07T04:19:01.676Z,0.50
2023-05-07T04:24:06.033Z,0.40
2023-05-07T04:29:12.435Z,0.43
2023-05-07T04:34:16.423Z,0.30
2023-05-07T04:39:20.134Z,0.40
2023-05-07T04:44:28.430Z,0.40
2023-05-07T04:49:32.655Z,0.40
2023-05-07T04:54:36.378Z,0.40
2023-05-07T04:59:41.372Z,0.23
2023-05-07T05:04:45.574Z,0.30
2023-05-07T05:09:49.317Z,0.40
2023-05-07T05:14:54.579Z,0.40
2023-05-07T05:19:58.766Z,0.47
2023-05-07T05:25:02.871Z,0.53
2023-05-07T05:30:09.378Z,0.50
2023-05-07T05:35:14.849Z,0.70
2023-05-07T05:40:20.285Z,0.50
2023-05-07T05:45:25.988Z,0.50
2023-05-07T05:50:29.615Z,0.50
2023-05-07T05:55:33.901Z,0.60
2023-05-07T06:00:39.136Z,0.50
2023-05-07T06:05:44.151Z,0.30
2023-05-07T06:10:47.994Z,0.40
2023-05-07T06:15:53.675Z,0.40
2023-05-07T06:20:57.450Z,0.60
2023-05-07T06:26:05.326Z,0.70
2023-05-07T06:31:18.030Z,0.60
2023-05-07T06:36:28.166Z,0.60
2023-05-07T06:41:35.436Z,0.70
2023-05-07T06:46:46.133Z,0.50
2023-05-07T06:51:50.573Z,0.40
2023-05-07T06:56:54.244Z,0.60
2023-05-07T07:02:00.699Z,0.50
2023-05-07T07:07:04.943Z,0.80
2023-05-07T07:12:08.683Z,0.60
2023-05-07T07:17:16.599Z,0.60
2023-05-07T07:22:20.409Z,0.63
2023-05-07T07:27:24.386Z,0.40
2023-05-07T07:32:29.449Z,0.60
2023-05-07T07:37:33.178Z,0.70
2023-05-07T07:42:36.734Z,0.60
2023-05-07T07:47:42.306Z,0.70
2023-05-07T07:52:46.850Z,0.80
2023-05-07T07:57:52.841Z,0.70
2023-05-07T08:02:58.110Z,0.57
2023-05-07T08:08:06.870Z,0.80
2023-05-07T08:13:12.648Z,0.60
2023-05-07T08:18:19.011Z,0.70
2023-05-07T08:23:23.199Z,0.70
2023-05-07T08:28:27.547Z,0.60
2023-05-07T08:33:32.633Z,0.67
2023-05-07T08:38:36.441Z,0.53
2023-05-07T08:43:42.239Z,0.87
2023-05-07T08:48:50.317Z,0.70
2023-05-07T08:53:53.954Z,0.70
2023-05-07T08:59:05.627Z,0.60
2023-05-07T09:04:11.297Z,0.73
2023-05-07T09:09:19.462Z,0.80
2023-05-07T09:14:24.145Z,0.70
2023-05-07T09:19:30.215Z,0.80
2023-05-07T09:24:38.817Z,0.70
2023-05-07T09:29:45.668Z,0.70
2023-05-07T09:34:52.264Z,0.80
2023-05-07T09:39:59.964Z,0.67
2023-05-07T09:45:08.386Z,0.73
2023-05-07T09:50:18.019Z,0.60
2023-05-07T09:55:22.998Z,0.60
2023-05-07T10:00:29.225Z,0.70
2023-05-07T10:05:45.406Z,0.77
2023-05-07T10:10:51.099Z,0.67
2023-05-07T10:15:59.625Z,1.20
2023-05-07T10:21:18.195Z,1.17
2023-05-07T10:26:24.317Z,0.70
2023-05-07T10:31:50.850Z,0.63
2023-05-07T10:36:57.624Z,0.60
2023-05-07T10:42:10.464Z,0.70
2023-05-07T10:47:17.863Z,0.70
2023-05-07T10:52:27.097Z,0.60
2023-05-07T10:57:46.963Z,0.80
2023-05-07T11:03:09.634Z,0.50
2023-05-07T11:08:55.055Z,0.77
2023-05-07T11:14:02.500Z,0.60
2023-05-07T11:19:15.824Z,0.80
2023-05-07T11:24:25.994Z,0.70
2023-05-07T11:29:36.544Z,0.50
2023-05-07T11:34:46.495Z,0.60
2023-05-07T11:39:55.405Z,0.70
2023-05-07T11:44:59.191Z,0.60
2023-05-07T11:50:06.735Z,0.57
2023-05-07T11:55:12.137Z,0.40
2023-05-07T12:00:18.410Z,0.60
2023-05-07T12:05:22.031Z,0.60
2023-05-07T12:10:26.917Z,0.50
2023-05-07T12:15:30.431Z,0.60
2023-05-07T12:20:33.922Z,0.40
2023-05-07T12:25:39.812Z,0.50
2023-05-07T12:30:45.033Z,0.40
2023-05-07T12:35:50.927Z,0.50
2023-05-07T12:40:57.302Z,0.40
2023-05-07T12:46:03.523Z,0.40
2023-05-07T12:51:08.509Z,0.70
2023-05-07T12:56:13.394Z,0.87
2023-05-07T13:01:20.180Z,0.80
2023-05-07T13:06:23.857Z,0.50
2023-05-07T13:11:28.679Z,0.50
2023-05-07T13:16:32.327Z,0.40
2023-05-07T13:21:35.986Z,0.60
2023-05-07T13:26:40.896Z,0.50
2023-05-07T13:31:45.157Z,0.60
2023-05-07T13:36:48.796Z,0.30
2023-05-07T13:41:53.700Z,0.50
2023-05-07T13:46:57.252Z,0.50
2023-05-07T13:52:00.789Z,0.40
2023-05-07T13:57:05.679Z,0.50
2023-05-07T14:02:10.080Z,0.83
2023-05-07T14:07:13.784Z,0.60
2023-05-07T14:12:18.679Z,0.60
2023-05-07T14:17:24.122Z,0.50
2023-05-07T14:22:27.713Z,0.40
2023-05-07T14:27:32.560Z,0.50
2023-05-07T14:32:36.313Z,0.40
2023-05-07T14:37:39.858Z,0.40
2023-05-07T14:42:44.745Z,0.33
2023-05-07T14:47:48.307Z,0.50
2023-05-07T14:52:51.840Z,0.50
2023-05-07T14:57:57.612Z,0.50
2023-05-07T15:03:08.461Z,0.60
2023-05-07T15:08:12.416Z,0.40
2023-05-07T15:13:17.305Z,0.30
2023-05-07T15:18:22.667Z,0.50
2023-05-07T15:23:27.159Z,0.40
2023-05-07T15:28:32.470Z,0.40
2023-05-07T15:33:37.216Z,0.33
2023-05-07T15:38:41.300Z,0.30
2023-05-07T15:43:50.069Z,0.30
2023-05-07T15:48:54.057Z,0.40
2023-05-07T15:53:57.606Z,0.50
2023-05-07T15:59:04.007Z,0.60
2023-05-07T16:04:08.540Z,0.63
2023-05-07T16:09:12.054Z,0.60
2023-05-07T16:14:17.106Z,0.60
2023-05-07T16:19:20.751Z,0.60
2023-05-07T16:24:24.308Z,0.70
2023-05-07T16:29:29.285Z,0.70
2023-05-07T16:34:33.072Z,0.90
2023-05-07T16:39:36.628Z,0.80
2023-05-07T16:44:41.590Z,0.80
2023-05-07T16:49:45.102Z,0.90
2023-05-07T16:54:48.619Z,0.80
2023-05-07T16:59:53.829Z,0.80
2023-05-07T17:04:57.356Z,0.90
2023-05-07T17:10:00.983Z,0.80
2023-05-07T17:15:06.970Z,0.77
2023-05-07T17:20:11.980Z,0.80
2023-05-07T17:25:15.710Z,0.90
2023-05-07T17:30:20.586Z,0.90
2023-05-07T17:35:24.102Z,0.57
2023-05-07T17:40:29.509Z,0.70
2023-05-07T17:45:35.075Z,0.70
2023-05-07T17:50:38.638Z,0.60
2023-05-07T17:55:45.387Z,0.57
2023-05-07T18:00:50.318Z,0.60
2023-05-07T18:05:53.892Z,0.50
2023-05-07T18:10:57.472Z,0.57
2023-05-07T18:16:02.406Z,0.70
2023-05-07T18:21:05.971Z,0.60
2023-05-07T18:26:09.507Z,0.90
2023-05-07T18:31:14.459Z,1.00
2023-05-07T18:36:18.041Z,1.17
2023-05-07T18:41:22.262Z,1.20
2023-05-07T18:46:28.966Z,1.13
2023-05-07T18:51:32.576Z,0.90
2023-05-07T18:56:36.040Z,0.90
2023-05-07T19:01:41.425Z,0.70
2023-05-07T19:06:45.040Z,0.70
2023-05-07T19:11:48.514Z,0.80
2023-05-07T19:16:53.776Z,0.60
2023-05-07T19:21:57.273Z,0.60
2023-05-07T19:27:01.557Z,0.80
2023-05-07T19:32:07.243Z,0.87
2023-05-07T19:37:10.894Z,0.80
2023-05-07T19:42:15.085Z,1.20
2023-05-07T19:47:20.652Z,0.73
2023-05-07T19:52:24.156Z,0.83
2023-05-07T19:57:27.701Z,1.00
2023-05-07T20:02:33.138Z,1.20
2023-05-07T20:07:37.095Z,1.33
2023-05-07T20:12:40.652Z,1.23
2023-05-07T20:17:45.803Z,1.20
2023-05-07T20:22:49.390Z,1.10
2023-05-07T20:27:52.915Z,1.10
2023-05-07T20:32:58.055Z,1.00
2023-05-07T20:38:01.956Z,1.00
2023-05-07T20:43:07.865Z,0.80
2023-05-07T20:48:13.516Z,0.70
2023-05-07T20:53:17.064Z,0.90
2023-05-07T20:58:20.624Z,1.10
2023-05-07T21:03:25.698Z,1.10
2023-05-07T21:08:29.240Z,1.00
2023-05-07T21:13:32.842Z,0.77
2023-05-07T21:18:37.840Z,0.70
2023-05-07T21:23:41.334Z,0.80
2023-05-07T21:28:44.850Z,0.80
2023-05-07T21:33:49.778Z,1.10
2023-05-07T21:38:53.711Z,0.97
2023-05-07T21:43:57.217Z,0.60
2023-05-07T21:49:02.087Z,0.60
2023-05-07T21:54:06.682Z,0.80
2023-05-07T21:59:10.179Z,0.80
2023-05-07T22:04:15.109Z,1.10
2023-05-07T22:09:18.902Z,1.00
2023-05-07T22:14:23.779Z,1.27
2023-05-07T22:19:28.668Z,1.30
2023-05-07T22:24:32.343Z,1.33
2023-05-07T22:29:35.920Z,1.30
2023-05-07T22:34:40.826Z,1.20
2023-05-07T22:39:44.474Z,1.47
2023-05-07T22:44:48.051Z,1.20
2023-05-07T22:49:52.963Z,1.10
2023-05-07T22:54:56.503Z,1.10
2023-05-07T23:00:00.061Z,0.90
2023-05-07T23:05:05.457Z,1.00
2023-05-07T23:10:09.996Z,1.43
2023-05-07T23:15:13.713Z,1.50
2023-05-07T23:20:18.849Z,1.20
2023-05-07T23:25:22.612Z,1.10
2023-05-07T23:30:26.135Z,0.80
2023-05-07T23:35:31.045Z,0.70
2023-05-07T23:40:34.735Z,0.63
2023-05-07T23:45:38.243Z,0.70
2023-05-07T23:50:43.260Z,0.80
2023-05-07T23:55:46.757Z,0.63
